createdAt,value
2018-02-15T00:00:18.413Z,99.90
2018-02-15T00:02:46.161Z,99.90
2018-02-15T00:05:13.969Z,99.90
2018-02-15T00:07:41.731Z,99.90
2018-02-15T00:10:10.240Z,99.90
2018-02-15T00:12:38.041Z,99.90
2018-02-15T00:15:05.793Z,99.90
2018-02-15T00:17:33.545Z,99.90
2018-02-15T00:20:02.125Z,99.90
2018-02-15T00:22:29.870Z,99.90
2018-02-15T00:24:57.617Z,99.90
2018-02-15T00:27:25.429Z,99.90
2018-02-15T00:29:53.173Z,99.90
2018-02-15T00:32:20.922Z,99.90
2018-02-15T00:34:48.750Z,99.90
2018-02-15T00:37:17.273Z,99.90
2018-02-15T00:39:45.017Z,99.90
2018-02-15T00:42:12.816Z,99.90
2018-02-15T00:44:40.563Z,99.90
2018-02-15T00:47:08.305Z,99.90
2018-02-15T00:49:36.104Z,99.90
2018-02-15T00:52:03.856Z,99.90
2018-02-15T00:54:31.610Z,99.90
2018-02-15T00:56:59.429Z,99.90
2018-02-15T00:59:27.950Z,99.90
2018-02-15T01:01:55.705Z,99.90
2018-02-15T01:04:23.505Z,99.90
2018-02-15T01:06:51.265Z,99.90
2018-02-15T01:09:19.021Z,99.90
2018-02-15T01:11:46.826Z,99.90
2018-02-15T01:14:14.578Z,99.90
2018-02-15T01:16:43.095Z,99.90
2018-02-15T01:19:10.893Z,99.90
2018-02-15T01:21:38.640Z,99.90
2018-02-15T01:24:06.385Z,99.90
2018-02-15T01:26:34.193Z,99.90
2018-02-15T01:29:02.705Z,99.90
2018-02-15T01:31:30.473Z,99.90
2018-02-15T01:33:58.278Z,99.90
2018-02-15T01:36:26.065Z,99.90
2018-02-15T01:38:54.584Z,99.90
2018-02-15T01:41:22.398Z,99.90
2018-02-15T01:43:50.150Z,99.90
2018-02-15T01:46:17.910Z,99.90
2018-02-15T01:48:45.728Z,99.90
2018-02-15T01:51:13.477Z,99.90
2018-02-15T01:53:41.227Z,99.90
2018-02-15T01:56:09.033Z,99.90
2018-02-15T01:58:36.785Z,99.90
2018-02-15T02:01:04.552Z,99.90
2018-02-15T02:03:32.522Z,99.90
2018-02-15T02:06:00.281Z,99.90
2018-02-15T02:08:28.089Z,99.90
2018-02-15T02:10:56.655Z,99.90
2018-02-15T02:13:24.403Z,99.90
2018-02-15T02:15:52.153Z,99.90
2018-02-15T02:18:19.958Z,99.90
2018-02-15T02:20:48.498Z,99.90
2018-02-15T02:23:16.274Z,99.90
2018-02-15T02:25:44.195Z,99.90
2018-02-15T02:28:11.945Z,99.90
2018-02-15T02:30:39.713Z,99.90
2018-02-15T02:33:07.518Z,99.90
2018-02-15T02:35:36.041Z,99.90
2018-02-15T02:38:04.559Z,99.90
2018-02-15T02:40:32.370Z,99.90
2018-02-15T02:43:00.888Z,99.90
2018-02-15T02:45:28.642Z,99.90
2018-02-15T02:47:56.452Z,99.90
2018-02-15T02:50:24.206Z,99.90
2018-02-15T02:52:51.949Z,99.90
2018-02-15T02:55:19.749Z,99.90
2018-02-15T02:57:47.503Z,99.90
2018-02-15T03:00:15.249Z,99.90
2018-02-15T03:02:43.052Z,99.90
2018-02-15T03:05:11.578Z,99.90
2018-02-15T03:07:39.337Z,99.90
2018-02-15T03:10:07.143Z,99.90
2018-02-15T03:12:35.650Z,99.90
2018-02-15T03:15:03.445Z,99.90
2018-02-15T03:17:32.016Z,99.90
2018-02-15T03:19:59.761Z,99.90
2018-02-15T03:22:27.513Z,99.90
2018-02-15T03:24:55.320Z,99.90
2018-02-15T03:27:23.067Z,99.90
2018-02-15T03:29:50.819Z,99.90
2018-02-15T03:32:18.625Z,99.90
2018-02-15T03:34:46.377Z,99.90
2018-02-15T03:37:14.147Z,99.90
2018-02-15T03:39:41.945Z,99.90
2018-02-15T03:42:09.715Z,99.90
2018-02-15T03:44:37.470Z,99.90
2018-02-15T03:47:05.275Z,99.90
2018-02-15T03:49:33.025Z,99.90
2018-02-15T03:52:00.765Z,99.90
2018-02-15T03:54:28.570Z,99.90
2018-02-15T03:56:56.313Z,99.90
2018-02-15T03:59:24.056Z,99.90
2018-02-15T04:01:51.863Z,99.90
2018-02-15T04:04:19.613Z,99.90
2018-02-15T04:06:47.370Z,99.90
2018-02-15T04:09:15.186Z,99.90
2018-02-15T04:11:42.952Z,99.90
2018-02-15T04:14:10.704Z,99.90
2018-02-15T04:16:39.273Z,99.90
2018-02-15T04:19:07.797Z,99.90
2018-02-15T04:21:35.586Z,99.90
2018-02-15T04:24:03.380Z,99.90
2018-02-15T04:26:31.889Z,99.90
2018-02-15T04:28:59.651Z,99.90
2018-02-15T04:31:27.481Z,99.90
2018-02-15T04:33:56.000Z,99.90
2018-02-15T04:36:23.748Z,99.90
2018-02-15T04:38:51.556Z,99.90
2018-02-15T04:41:19.307Z,99.90
2018-02-15T04:43:47.065Z,99.90
2018-02-15T04:46:14.869Z,99.90
2018-02-15T04:48:43.380Z,99.90
2018-02-15T04:51:11.126Z,99.90
2018-02-15T04:53:39.696Z,99.90
2018-02-15T04:56:08.206Z,99.90
2018-02-15T04:58:35.953Z,99.90
2018-02-15T05:01:03.761Z,99.90
2018-02-15T05:03:31.515Z,99.90
2018-02-15T05:05:59.372Z,99.90
2018-02-15T05:08:27.175Z,99.90
2018-02-15T05:10:54.917Z,99.90
2018-02-15T05:13:22.697Z,99.90
2018-02-15T05:15:50.495Z,99.90
2018-02-15T05:18:18.249Z,99.90
2018-02-15T05:20:46.004Z,99.90
2018-02-15T05:23:13.809Z,99.90
2018-02-15T05:25:41.562Z,99.90
2018-02-15T05:28:09.310Z,99.90
2018-02-15T05:30:37.114Z,99.90
2018-02-15T05:33:04.860Z,99.90
2018-02-15T05:35:32.646Z,99.90
2018-02-15T05:38:00.453Z,99.90
2018-02-15T05:40:28.203Z,99.90
2018-02-15T05:42:55.952Z,99.90
2018-02-15T05:45:24.540Z,99.90
2018-02-15T05:47:53.057Z,99.90
2018-02-15T05:50:20.815Z,99.90
2018-02-15T05:52:48.619Z,99.90
2018-02-15T05:55:16.362Z,99.90
2018-02-15T05:57:44.127Z,99.90
2018-02-15T06:00:11.931Z,99.90
2018-02-15T06:02:40.454Z,99.90
2018-02-15T06:05:08.210Z,99.90
2018-02-15T06:07:36.012Z,99.90
2018-02-15T06:10:03.761Z,99.90
2018-02-15T06:12:31.516Z,99.90
2018-02-15T06:14:59.319Z,99.90
2018-02-15T06:17:27.064Z,99.90
2018-02-15T06:19:54.825Z,99.90
2018-02-15T06:22:22.638Z,99.90
2018-02-15T06:24:50.404Z,99.90
2018-02-15T06:27:18.159Z,99.90
2018-02-15T06:29:45.986Z,99.90
2018-02-15T06:32:14.521Z,99.90
2018-02-15T06:34:42.281Z,99.90
2018-02-15T06:37:10.094Z,99.90
2018-02-15T06:39:38.611Z,99.90
2018-02-15T06:42:06.366Z,99.90
2018-02-15T06:44:34.245Z,99.90
2018-02-15T06:47:02.000Z,99.90
2018-02-15T06:49:29.793Z,99.90
2018-02-15T06:51:57.594Z,99.90
2018-02-15T06:54:25.346Z,99.90
2018-02-15T06:56:53.861Z,99.90
2018-02-15T06:59:21.669Z,99.90
2018-02-15T07:01:49.451Z,99.90
2018-02-15T07:04:17.976Z,99.90
2018-02-15T07:06:45.784Z,99.90
2018-02-15T07:09:14.302Z,99.90
2018-02-15T07:11:42.057Z,99.90
2018-02-15T07:14:09.891Z,99.90
2018-02-15T07:16:38.405Z,99.90
2018-02-15T07:19:06.150Z,99.90
2018-02-15T07:21:33.946Z,99.90
2018-02-15T07:24:01.693Z,99.90
2018-02-15T07:26:29.513Z,99.90
2018-02-15T07:28:57.605Z,99.90
2018-02-15T07:31:25.350Z,99.90
2018-02-15T07:33:53.870Z,99.90
2018-02-15T07:36:21.670Z,99.90
2018-02-15T07:38:49.438Z,99.90
2018-02-15T07:41:17.193Z,99.90
2018-02-15T07:43:45.057Z,99.90
2018-02-15T07:46:12.838Z,99.90
2018-02-15T07:48:41.370Z,99.90
2018-02-15T07:51:09.176Z,99.90
2018-02-15T07:53:36.941Z,99.90
2018-02-15T07:56:05.466Z,99.90
2018-02-15T07:58:33.286Z,99.90
2018-02-15T08:01:01.821Z,99.90
2018-02-15T08:03:29.569Z,99.90
2018-02-15T08:05:57.380Z,99.90
2018-02-15T08:08:25.126Z,99.90
2018-02-15T08:10:52.874Z,99.90
2018-02-15T08:13:20.686Z,99.90
2018-02-15T08:15:49.199Z,99.90
2018-02-15T08:18:16.949Z,99.90
2018-02-15T08:20:44.754Z,99.90
2018-02-15T08:23:12.508Z,99.90
2018-02-15T08:25:40.319Z,99.90
2018-02-15T08:28:08.894Z,99.90
2018-02-15T08:30:37.410Z,99.90
2018-02-15T08:33:05.165Z,99.90
2018-02-15T08:35:32.965Z,99.90
2018-02-15T08:38:00.709Z,99.90
2018-02-15T08:40:28.462Z,99.90
2018-02-15T08:42:56.267Z,99.90
2018-02-15T08:45:24.042Z,99.90
2018-02-15T08:47:52.555Z,99.90
2018-02-15T08:50:20.361Z,99.90
2018-02-15T08:52:48.253Z,99.90
2018-02-15T08:55:16.769Z,99.90
2018-02-15T08:57:44.572Z,99.90
2018-02-15T09:00:12.321Z,99.90
2018-02-15T09:02:40.081Z,99.90
2018-02-15T09:05:07.885Z,99.90
2018-02-15T09:07:36.425Z,99.90
2018-02-15T09:10:04.181Z,99.90
2018-02-15T09:12:31.986Z,99.90
2018-02-15T09:15:00.530Z,99.90
2018-02-15T09:17:28.286Z,99.90
2018-02-15T09:19:56.111Z,99.90
2018-02-15T09:22:23.857Z,99.90
2018-02-15T09:24:51.622Z,99.90
2018-02-15T09:27:19.484Z,99.90
2018-02-15T09:29:47.233Z,99.90
2018-02-15T09:32:15.768Z,99.90
2018-02-15T09:34:43.585Z,99.90
2018-02-15T09:37:11.370Z,99.90
2018-02-15T09:39:39.118Z,99.90
2018-02-15T09:42:07.142Z,99.90
2018-02-15T09:44:34.895Z,99.90
2018-02-15T09:47:02.785Z,99.90
2018-02-15T09:49:31.361Z,99.90
2018-02-15T09:51:59.121Z,99.90
2018-02-15T09:54:26.907Z,99.90
2018-02-15T09:56:54.726Z,99.90
2018-02-15T09:59:22.473Z,99.90
2018-02-15T10:01:51.136Z,99.90
2018-02-15T10:04:18.936Z,99.90
2018-02-15T10:06:46.809Z,99.90
2018-02-15T10:09:14.565Z,99.90
2018-02-15T10:11:42.369Z,99.90
2018-02-15T10:14:10.118Z,99.90
2018-02-15T10:16:38.636Z,99.90
2018-02-15T10:19:06.432Z,99.90
2018-02-15T10:21:34.180Z,99.90
2018-02-15T10:24:02.150Z,99.90
2018-02-15T10:26:29.979Z,99.90
2018-02-15T10:28:57.740Z,99.90
2018-02-15T10:31:25.486Z,99.90
2018-02-15T10:33:53.287Z,99.90
2018-02-15T10:36:21.804Z,97.70
2018-02-15T10:38:49.549Z,97.40
2018-02-15T10:41:17.345Z,96.70
2018-02-15T10:43:46.039Z,99.70
2018-02-15T10:46:13.822Z,99.70
2018-02-15T10:48:41.625Z,98.00
2018-02-15T10:51:09.380Z,94.50
2018-02-15T10:53:37.324Z,99.90
2018-02-15T10:56:05.120Z,99.40
2018-02-15T10:58:32.875Z,99.90
2018-02-15T11:01:06.261Z,99.90
2018-02-15T11:03:34.023Z,95.90
2018-02-15T11:06:01.780Z,96.50
2018-02-15T11:08:29.593Z,96.60
2018-02-15T11:10:57.332Z,95.60
2018-02-15T11:13:25.077Z,93.20
2018-02-15T11:15:52.889Z,94.70
2018-02-15T11:18:20.639Z,92.10
2018-02-15T11:20:48.449Z,86.40
2018-02-15T11:23:16.268Z,88.60
2018-02-15T11:25:44.016Z,85.30
2018-02-15T11:28:12.528Z,91.10
2018-02-15T11:30:40.327Z,91.10
2018-02-15T11:33:08.078Z,91.00
2018-02-15T11:35:35.838Z,91.00
2018-02-15T11:38:03.654Z,82.00
2018-02-15T11:40:31.402Z,78.10
2018-02-15T11:42:59.924Z,91.80
2018-02-15T11:45:27.737Z,92.00
2018-02-15T11:47:56.253Z,92.90
2018-02-15T11:50:23.993Z,92.50
2018-02-15T11:52:52.566Z,74.90
2018-02-15T11:55:21.077Z,74.30
2018-02-15T11:57:48.821Z,74.30
2018-02-15T12:00:16.621Z,67.20
2018-02-15T12:02:44.368Z,80.00
2018-02-15T12:05:12.122Z,74.30
2018-02-15T12:07:39.933Z,72.10
2018-02-15T12:10:07.682Z,72.30
2018-02-15T12:12:35.441Z,73.00
2018-02-15T12:15:03.258Z,78.80
2018-02-15T12:17:31.000Z,86.10
2018-02-15T12:19:59.516Z,87.30
2018-02-15T12:22:27.322Z,87.10
2018-02-15T12:24:55.069Z,82.30
2018-02-15T12:27:22.817Z,81.20
2018-02-15T12:29:50.614Z,78.20
2018-02-15T12:32:18.360Z,74.20
2018-02-15T12:34:46.111Z,78.20
2018-02-15T12:37:13.911Z,83.60
2018-02-15T12:39:42.431Z,78.00
2018-02-15T12:42:10.181Z,77.10
2018-02-15T12:44:37.981Z,72.10
2018-02-15T12:47:05.770Z,76.20
2018-02-15T12:49:34.293Z,70.50
2018-02-15T12:52:02.090Z,70.50
2018-02-15T12:54:29.838Z,79.90
2018-02-15T12:56:57.589Z,76.20
2018-02-15T12:59:25.450Z,78.00
2018-02-15T13:01:53.225Z,81.10
2018-02-15T13:04:21.754Z,71.40
2018-02-15T13:06:50.317Z,72.50
2018-02-15T13:09:18.065Z,72.50
2018-02-15T13:11:45.809Z,69.70
2018-02-15T13:14:13.617Z,71.10
2018-02-15T13:16:53.993Z,70.60
2018-02-15T13:19:33.677Z,70.50
2018-02-15T13:22:01.433Z,71.00
2018-02-15T13:24:29.181Z,75.20
2018-02-15T13:26:56.984Z,72.00
2018-02-15T13:29:24.729Z,67.80
2018-02-15T13:31:52.468Z,73.00
2018-02-15T13:34:21.090Z,71.80
2018-02-15T13:36:49.192Z,71.80
2018-02-15T13:39:16.936Z,69.60
2018-02-15T13:41:45.509Z,68.70
2018-02-15T13:44:14.020Z,70.80
2018-02-15T13:46:41.772Z,70.40
2018-02-15T13:49:09.570Z,70.40
2018-02-15T13:51:37.326Z,67.20
2018-02-15T13:54:05.073Z,71.70
2018-02-15T13:56:32.875Z,72.90
2018-02-15T13:59:00.623Z,74.50
2018-02-15T14:01:28.370Z,75.80
2018-02-15T14:03:56.170Z,74.90
2018-02-15T14:06:23.917Z,76.60
2018-02-15T14:08:51.661Z,79.50
2018-02-15T14:11:21.088Z,73.30
2018-02-15T14:13:48.835Z,72.50
2018-02-15T14:16:16.605Z,71.50
2018-02-15T14:18:44.427Z,72.70
2018-02-15T14:21:12.169Z,74.30
2018-02-15T14:23:39.963Z,76.50
2018-02-15T14:26:07.761Z,75.00
2018-02-15T14:28:35.520Z,68.40
2018-02-15T14:31:03.270Z,70.70
2018-02-15T14:33:31.069Z,73.70
2018-02-15T14:35:59.577Z,68.50
2018-02-15T14:38:27.326Z,68.50
2018-02-15T14:40:55.128Z,67.30
2018-02-15T14:43:23.641Z,74.40
2018-02-15T14:45:51.393Z,73.70
2018-02-15T14:48:19.193Z,76.60
2018-02-15T14:50:46.943Z,75.80
2018-02-15T14:53:15.462Z,72.20
2018-02-15T14:55:43.280Z,72.10
2018-02-15T14:58:11.790Z,71.00
2018-02-15T15:00:39.531Z,70.90
2018-02-15T15:03:08.093Z,70.80
2018-02-15T15:05:35.844Z,71.10
2018-02-15T15:08:03.590Z,70.60
2018-02-15T15:10:31.398Z,70.80
2018-02-15T15:12:59.909Z,75.50
2018-02-15T15:15:27.651Z,75.50
2018-02-15T15:17:55.456Z,75.20
2018-02-15T15:20:23.958Z,76.50
2018-02-15T15:22:51.712Z,76.00
2018-02-15T15:25:19.513Z,77.10
2018-02-15T15:27:47.270Z,80.00
2018-02-15T15:30:15.022Z,80.40
2018-02-15T15:32:43.772Z,80.20
2018-02-15T15:35:11.517Z,80.10
2018-02-15T15:37:39.290Z,80.20
2018-02-15T15:40:07.107Z,80.90
2018-02-15T15:42:34.925Z,80.30
2018-02-15T15:45:02.686Z,78.00
2018-02-15T15:47:30.495Z,77.70
2018-02-15T15:49:58.567Z,75.40
2018-02-15T15:52:26.334Z,76.30
2018-02-15T15:54:54.135Z,76.90
2018-02-15T15:57:21.906Z,75.30
2018-02-15T15:59:49.656Z,76.50
2018-02-15T16:02:17.445Z,76.70
2018-02-15T16:04:46.209Z,77.30
2018-02-15T16:07:16.026Z,78.10
2018-02-15T16:09:45.683Z,78.00
2018-02-15T16:12:13.973Z,79.10
2018-02-15T16:14:43.049Z,80.40
2018-02-15T16:17:12.210Z,80.20
2018-02-15T16:19:41.067Z,81.80
2018-02-15T16:22:10.015Z,81.40
2018-02-15T16:24:37.852Z,82.70
2018-02-15T16:27:05.728Z,82.40
2018-02-15T16:29:34.326Z,84.60
2018-02-15T16:32:02.167Z,84.60
2018-02-15T16:34:30.703Z,85.60
2018-02-15T16:36:58.515Z,85.60
2018-02-15T16:39:26.326Z,86.40
2018-02-15T16:41:54.103Z,87.60
2018-02-15T16:44:21.862Z,86.90
2018-02-15T16:46:49.670Z,88.30
2018-02-15T16:49:17.420Z,87.70
2018-02-15T16:51:45.931Z,90.20
2018-02-15T16:54:13.735Z,90.20
2018-02-15T16:56:41.491Z,90.40
2018-02-15T16:59:09.237Z,90.90
2018-02-15T17:01:37.064Z,91.00
2018-02-15T17:04:04.813Z,91.80
2018-02-15T17:06:33.321Z,92.20
2018-02-15T17:09:01.125Z,92.20
2018-02-15T17:11:28.871Z,92.40
2018-02-15T17:13:57.386Z,93.90
2018-02-15T17:16:25.192Z,93.90
2018-02-15T17:18:52.937Z,93.00
2018-02-15T17:21:20.722Z,96.00
2018-02-15T17:23:48.529Z,95.60
2018-02-15T17:26:16.282Z,95.50
2018-02-15T17:28:44.030Z,96.50
2018-02-15T17:31:11.845Z,97.40
2018-02-15T17:33:39.614Z,98.70
2018-02-15T17:36:07.366Z,99.10
2018-02-15T17:38:35.164Z,99.90
2018-02-15T17:41:02.947Z,99.90
2018-02-15T17:43:30.708Z,99.90
2018-02-15T17:46:03.886Z,99.90
2018-02-15T17:48:31.971Z,99.90
2018-02-15T17:50:59.721Z,99.90
2018-02-15T17:53:27.666Z,99.90
2018-02-15T17:55:55.426Z,99.90
2018-02-15T17:58:23.248Z,99.90
2018-02-15T18:00:51.810Z,99.90
2018-02-15T18:03:19.562Z,99.90
2018-02-15T18:05:47.313Z,99.90
2018-02-15T18:08:15.125Z,99.90
2018-02-15T18:10:44.025Z,99.90
2018-02-15T18:13:22.729Z,99.90
2018-02-15T18:16:00.491Z,99.90
2018-02-15T18:18:29.070Z,99.90
2018-02-15T18:20:57.029Z,99.90
2018-02-15T18:23:25.640Z,99.90
2018-02-15T18:25:54.527Z,99.90
2018-02-15T18:28:22.409Z,99.90
2018-02-15T18:30:50.196Z,99.90
2018-02-15T18:33:18.974Z,99.90
2018-02-15T18:35:46.723Z,99.90
2018-02-15T18:38:14.570Z,99.90
2018-02-15T18:40:42.402Z,99.90
2018-02-15T18:43:10.217Z,99.90
2018-02-15T18:45:37.982Z,99.90
2018-02-15T18:48:08.581Z,99.90
2018-02-15T18:50:37.434Z,99.90
2018-02-15T18:53:05.262Z,99.90
2018-02-15T18:55:33.085Z,99.90
2018-02-15T18:58:01.622Z,99.90
2018-02-15T19:00:29.509Z,99.90
2018-02-15T19:02:57.349Z,99.90
2018-02-15T19:05:25.187Z,99.90
2018-02-15T19:07:53.113Z,99.90
2018-02-15T19:10:20.917Z,99.90
2018-02-15T19:12:48.677Z,99.90
2018-02-15T19:15:16.441Z,99.90
2018-02-15T19:17:44.326Z,99.90
2018-02-15T19:20:12.090Z,99.90
2018-02-15T19:22:39.849Z,99.90
2018-02-15T19:25:07.659Z,99.90
2018-02-15T19:27:35.424Z,99.90
2018-02-15T19:30:03.181Z,99.90
2018-02-15T19:32:30.980Z,99.90
2018-02-15T19:34:58.865Z,99.90
2018-02-15T19:37:26.630Z,99.90
2018-02-15T19:39:54.429Z,99.90
2018-02-15T19:42:22.249Z,99.90
2018-02-15T19:44:50.002Z,99.90
2018-02-15T19:47:17.854Z,99.90
2018-02-15T19:49:45.597Z,99.90
2018-02-15T19:52:14.113Z,99.90
2018-02-15T19:54:41.912Z,99.90
2018-02-15T19:57:09.668Z,99.90
2018-02-15T19:59:37.462Z,99.90
2018-02-15T20:02:06.028Z,99.90
2018-02-15T20:04:33.786Z,99.90
2018-02-15T20:07:01.556Z,99.90
2018-02-15T20:09:29.359Z,99.90
2018-02-15T20:11:57.136Z,99.90
2018-02-15T20:14:24.888Z,99.90
2018-02-15T20:16:52.688Z,99.90
2018-02-15T20:19:20.432Z,99.90
2018-02-15T20:21:48.177Z,99.90
2018-02-15T20:24:15.998Z,99.90
2018-02-15T20:26:50.239Z,99.80
2018-02-15T20:29:18.043Z,99.70
2018-02-15T20:31:45.794Z,99.90
2018-02-15T20:34:13.553Z,99.90
2018-02-15T20:36:41.465Z,99.90
2018-02-15T20:39:15.580Z,99.70
2018-02-15T20:41:44.162Z,99.70
2018-02-15T20:44:12.697Z,98.60
2018-02-15T20:46:40.442Z,98.60
2018-02-15T20:49:14.054Z,99.40
2018-02-15T20:51:47.561Z,98.20
2018-02-15T20:54:20.934Z,99.10
2018-02-15T20:56:48.708Z,98.80
2018-02-15T20:59:16.481Z,99.90
2018-02-15T21:01:44.362Z,98.90
2018-02-15T21:04:12.128Z,98.50
2018-02-15T21:06:39.910Z,98.50
2018-02-15T21:09:07.712Z,98.20
2018-02-15T21:11:35.477Z,98.20
2018-02-15T21:14:04.072Z,97.70
2018-02-15T21:16:31.893Z,97.70
2018-02-15T21:18:59.657Z,97.60
2018-02-15T21:21:27.488Z,97.80
2018-02-15T21:23:56.068Z,98.10
2018-02-15T21:26:24.606Z,98.60
2018-02-15T21:28:52.367Z,98.60
2018-02-15T21:31:20.331Z,99.60
2018-02-15T21:33:48.138Z,98.80
2018-02-15T21:36:16.653Z,99.20
2018-02-15T21:38:44.522Z,99.20
2018-02-15T21:41:12.308Z,98.30
2018-02-15T21:43:40.097Z,98.10
2018-02-15T21:46:08.693Z,97.40
2018-02-15T21:48:37.231Z,96.40
2018-02-15T21:51:05.015Z,96.40
2018-02-15T21:53:32.816Z,96.80
2018-02-15T21:56:00.573Z,96.80
2018-02-15T21:58:29.077Z,96.40
2018-02-15T22:00:56.880Z,96.30
2018-02-15T22:03:24.669Z,96.50
2018-02-15T22:05:53.197Z,97.50
2018-02-15T22:08:21.004Z,97.50
2018-02-15T22:10:49.526Z,96.70
2018-02-15T22:13:17.293Z,96.70
2018-02-15T22:15:45.097Z,96.70
2018-02-15T22:18:12.860Z,96.30
2018-02-15T22:20:40.626Z,96.90
2018-02-15T22:23:08.434Z,96.20
2018-02-15T22:25:36.188Z,94.90
2018-02-15T22:28:03.945Z,94.70
2018-02-15T22:30:31.759Z,94.20
2018-02-15T22:32:59.509Z,94.70
2018-02-15T22:35:27.282Z,94.10
2018-02-15T22:37:55.117Z,94.00
2018-02-15T22:40:22.862Z,94.00
2018-02-15T22:42:50.610Z,95.40
2018-02-15T22:45:18.419Z,94.90
2018-02-15T22:47:46.174Z,94.80
2018-02-15T22:50:13.930Z,94.50
2018-02-15T22:52:41.759Z,95.30
2018-02-15T22:55:09.520Z,95.20
2018-02-15T22:57:37.268Z,94.90
2018-02-15T23:00:05.850Z,95.40
2018-02-15T23:02:34.370Z,94.00
2018-02-15T23:05:02.128Z,94.00
2018-02-15T23:07:29.951Z,94.20
2018-02-15T23:09:58.506Z,94.70
2018-02-15T23:12:26.254Z,94.70
2018-02-15T23:14:54.107Z,95.20
2018-02-15T23:17:21.865Z,94.00
2018-02-15T23:19:49.617Z,94.20
2018-02-15T23:22:17.416Z,95.30
2018-02-15T23:24:45.165Z,94.40
2018-02-15T23:27:12.926Z,95.30
2018-02-15T23:29:40.734Z,95.50
2018-02-15T23:32:09.252Z,95.20
2018-02-15T23:34:37.003Z,95.10
2018-02-15T23:37:04.804Z,95.30
2018-02-15T23:39:32.561Z,94.40
2018-02-15T23:42:01.105Z,94.80
2018-02-15T23:44:28.933Z,94.80
2018-02-15T23:46:57.461Z,95.10
2018-02-15T23:49:25.208Z,95.10
2018-02-15T23:51:53.018Z,95.20
2018-02-15T23:54:20.799Z,96.10
2018-02-15T23:56:49.312Z,96.30
2018-02-15T23:59:17.213Z,96.20
